sensor_id;sensor_type;location;lat;lon;timestamp;P1;durP1;ratioP1;P2;durP2;ratioP2
25359;SDS011;13311;51.386;0.016;2022-07-09T00:01:40;3.25;;;1.83;;
25359;SDS011;13311;51.386;0.016;2022-07-09T00:06:41;3.95;;;2.20;;
25359;SDS011;13311;51.386;0.016;2022-07-09T00:11:42;3.53;;;2.25;;
25359;SDS011;13311;51.386;0.016;2022-07-09T00:16:43;3.55;;;1.77;;
25359;SDS011;13311;51.386;0.016;2022-07-09T00:21:43;4.97;;;2.13;;
25359;SDS011;13311;51.386;0.016;2022-07-09T00:26:44;4.28;;;2.15;;
25359;SDS011;13311;51.386;0.016;2022-07-09T00:31:45;3.63;;;2.00;;
25359;SDS011;13311;51.386;0.016;2022-07-09T00:36:46;3.40;;;1.60;;
25359;SDS011;13311;51.386;0.016;2022-07-09T00:41:47;4.43;;;2.00;;
25359;SDS011;13311;51.386;0.016;2022-07-09T00:46:47;4.70;;;1.88;;
25359;SDS011;13311;51.386;0.016;2022-07-09T00:51:48;4.00;;;2.20;;
25359;SDS011;13311;51.386;0.016;2022-07-09T00:56:50;3.33;;;1.73;;
25359;SDS011;13311;51.386;0.016;2022-07-09T01:01:54;3.03;;;2.17;;
25359;SDS011;13311;51.386;0.016;2022-07-09T01:06:56;3.85;;;2.05;;
25359;SDS011;13311;51.386;0.016;2022-07-09T01:11:58;4.30;;;2.55;;
25359;SDS011;13311;51.386;0.016;2022-07-09T01:16:59;4.03;;;2.90;;
25359;SDS011;13311;51.386;0.016;2022-07-09T01:22:03;1.98;;;1.67;;
25359;SDS011;13311;51.386;0.016;2022-07-09T01:27:04;4.13;;;1.83;;
25359;SDS011;13311;51.386;0.016;2022-07-09T01:32:06;3.53;;;1.63;;
25359;SDS011;13311;51.386;0.016;2022-07-09T01:37:07;1.65;;;1.40;;
25359;SDS011;13311;51.386;0.016;2022-07-09T01:42:08;2.38;;;1.20;;
25359;SDS011;13311;51.386;0.016;2022-07-09T01:47:09;2.25;;;1.55;;
25359;SDS011;13311;51.386;0.016;2022-07-09T01:52:10;1.48;;;1.10;;
25359;SDS011;13311;51.386;0.016;2022-07-09T01:57:11;1.25;;;1.10;;
25359;SDS011;13311;51.386;0.016;2022-07-09T02:02:11;1.02;;;0.90;;
25359;SDS011;13311;51.386;0.016;2022-07-09T02:07:12;1.67;;;1.10;;
25359;SDS011;13311;51.386;0.016;2022-07-09T02:12:15;2.10;;;1.02;;
25359;SDS011;13311;51.386;0.016;2022-07-09T02:17:17;1.10;;;1.00;;
25359;SDS011;13311;51.386;0.016;2022-07-09T02:22:18;1.83;;;1.05;;
25359;SDS011;13311;51.386;0.016;2022-07-09T02:27:18;2.65;;;1.02;;
25359;SDS011;13311;51.386;0.016;2022-07-09T02:32:19;1.15;;;0.98;;
25359;SDS011;13311;51.386;0.016;2022-07-09T02:37:20;1.27;;;1.00;;
25359;SDS011;13311;51.386;0.016;2022-07-09T02:42:21;1.38;;;0.90;;
25359;SDS011;13311;51.386;0.016;2022-07-09T02:47:21;2.75;;;1.05;;
25359;SDS011;13311;51.386;0.016;2022-07-09T02:52:22;1.13;;;0.73;;
25359;SDS011;13311;51.386;0.016;2022-07-09T02:57:23;1.27;;;1.00;;
25359;SDS011;13311;51.386;0.016;2022-07-09T03:02:24;1.77;;;1.30;;
25359;SDS011;13311;51.386;0.016;2022-07-09T03:07:24;2.00;;;1.00;;
25359;SDS011;13311;51.386;0.016;2022-07-09T03:12:25;1.15;;;0.93;;
25359;SDS011;13311;51.386;0.016;2022-07-09T03:17:26;1.38;;;1.27;;
25359;SDS011;13311;51.386;0.016;2022-07-09T03:22:27;1.77;;;1.20;;
25359;SDS011;13311;51.386;0.016;2022-07-09T03:27:27;1.95;;;1.00;;
25359;SDS011;13311;51.386;0.016;2022-07-09T03:32:28;2.17;;;1.00;;
25359;SDS011;13311;51.386;0.016;2022-07-09T03:37:29;1.38;;;1.05;;
25359;SDS011;13311;51.386;0.016;2022-07-09T03:42:30;1.52;;;1.23;;
25359;SDS011;13311;51.386;0.016;2022-07-09T03:47:31;4.65;;;1.10;;
25359;SDS011;13311;51.386;0.016;2022-07-09T03:52:31;2.25;;;1.48;;
25359;SDS011;13311;51.386;0.016;2022-07-09T03:57:33;2.95;;;1.80;;
25359;SDS011;13311;51.386;0.016;2022-07-09T04:02:33;1.77;;;1.05;;
25359;SDS011;13311;51.386;0.016;2022-07-09T04:07:35;3.90;;;1.30;;
25359;SDS011;13311;51.386;0.016;2022-07-09T04:12:36;1.38;;;1.15;;
25359;SDS011;13311;51.386;0.016;2022-07-09T04:17:36;1.65;;;1.40;;
25359;SDS011;13311;51.386;0.016;2022-07-09T04:22:37;1.95;;;1.40;;
25359;SDS011;13311;51.386;0.016;2022-07-09T04:27:38;3.42;;;1.60;;
25359;SDS011;13311;51.386;0.016;2022-07-09T04:32:39;4.93;;;1.45;;
25359;SDS011;13311;51.386;0.016;2022-07-09T04:37:40;1.92;;;1.52;;
25359;SDS011;13311;51.386;0.016;2022-07-09T04:42:41;2.67;;;1.52;;
25359;SDS011;13311;51.386;0.016;2022-07-09T04:47:42;2.55;;;1.67;;
25359;SDS011;13311;51.386;0.016;2022-07-09T04:52:43;2.47;;;1.52;;
25359;SDS011;13311;51.386;0.016;2022-07-09T04:57:45;2.00;;;1.50;;
25359;SDS011;13311;51.386;0.016;2022-07-09T05:02:45;2.08;;;1.45;;
25359;SDS011;13311;51.386;0.016;2022-07-09T05:07:46;1.48;;;1.25;;
25359;SDS011;13311;51.386;0.016;2022-07-09T05:12:47;1.88;;;1.23;;
25359;SDS011;13311;51.386;0.016;2022-07-09T05:17:48;2.88;;;1.23;;
25359;SDS011;13311;51.386;0.016;2022-07-09T05:22:48;3.70;;;1.83;;
25359;SDS011;13311;51.386;0.016;2022-07-09T05:27:49;2.70;;;1.98;;
25359;SDS011;13311;51.386;0.016;2022-07-09T05:32:50;3.58;;;1.80;;
25359;SDS011;13311;51.386;0.016;2022-07-09T05:37:51;3.05;;;1.45;;
25359;SDS011;13311;51.386;0.016;2022-07-09T05:42:52;2.53;;;1.77;;
25359;SDS011;13311;51.386;0.016;2022-07-09T05:47:53;2.30;;;1.50;;
25359;SDS011;13311;51.386;0.016;2022-07-09T05:52:54;2.38;;;1.58;;
25359;SDS011;13311;51.386;0.016;2022-07-09T05:57:55;7.13;;;1.50;;
25359;SDS011;13311;51.386;0.016;2022-07-09T06:02:55;2.13;;;1.27;;
25359;SDS011;13311;51.386;0.016;2022-07-09T06:07:56;2.13;;;1.38;;
25359;SDS011;13311;51.386;0.016;2022-07-09T06:12:57;2.97;;;1.67;;
25359;SDS011;13311;51.386;0.016;2022-07-09T06:17:58;3.67;;;2.28;;
25359;SDS011;13311;51.386;0.016;2022-07-09T06:22:58;5.75;;;2.30;;
25359;SDS011;13311;51.386;0.016;2022-07-09T06:27:59;2.28;;;1.50;;
25359;SDS011;13311;51.386;0.016;2022-07-09T06:33:00;1.55;;;1.25;;
25359;SDS011;13311;51.386;0.016;2022-07-09T06:38:01;2.17;;;1.25;;
25359;SDS011;13311;51.386;0.016;2022-07-09T06:43:02;1.63;;;1.27;;
25359;SDS011;13311;51.386;0.016;2022-07-09T06:48:03;1.77;;;1.65;;
25359;SDS011;13311;51.386;0.016;2022-07-09T06:53:04;3.65;;;1.20;;
25359;SDS011;13311;51.386;0.016;2022-07-09T06:58:05;1.67;;;0.90;;
25359;SDS011;13311;51.386;0.016;2022-07-09T07:03:06;2.67;;;1.10;;
25359;SDS011;13311;51.386;0.016;2022-07-09T07:08:07;1.83;;;1.27;;
25359;SDS011;13311;51.386;0.016;2022-07-09T07:13:08;1.40;;;1.00;;
25359;SDS011;13311;51.386;0.016;2022-07-09T07:18:10;1.27;;;1.00;;
25359;SDS011;13311;51.386;0.016;2022-07-09T07:23:11;3.03;;;1.55;;
25359;SDS011;13311;51.386;0.016;2022-07-09T07:28:14;1.67;;;0.90;;
25359;SDS011;13311;51.386;0.016;2022-07-09T07:33:15;2.05;;;1.00;;
25359;SDS011;13311;51.386;0.016;2022-07-09T07:38:16;1.20;;;0.88;;
25359;SDS011;13311;51.386;0.016;2022-07-09T07:43:17;1.77;;;0.90;;
25359;SDS011;13311;51.386;0.016;2022-07-09T07:48:18;0.85;;;0.80;;
25359;SDS011;13311;51.386;0.016;2022-07-09T07:53:19;1.52;;;0.95;;
25359;SDS011;13311;51.386;0.016;2022-07-09T07:58:20;2.15;;;0.85;;
25359;SDS011;13311;51.386;0.016;2022-07-09T08:03:21;4.97;;;0.70;;
25359;SDS011;13311;51.386;0.016;2022-07-09T08:08:22;3.95;;;1.63;;
25359;SDS011;13311;51.386;0.016;2022-07-09T08:13:22;1.23;;;0.80;;
25359;SDS011;13311;51.386;0.016;2022-07-09T08:18:25;1.40;;;0.80;;
25359;SDS011;13311;51.386;0.016;2022-07-09T08:23:26;2.65;;;1.15;;
25359;SDS011;13311;51.386;0.016;2022-07-09T08:28:27;0.60;;;0.60;;
25359;SDS011;13311;51.386;0.016;2022-07-09T08:33:27;1.70;;;0.55;;
25359;SDS011;13311;51.386;0.016;2022-07-09T08:38:28;1.60;;;0.80;;
25359;SDS011;13311;51.386;0.016;2022-07-09T08:43:33;1.08;;;0.80;;
25359;SDS011;13311;51.386;0.016;2022-07-09T08:48:37;0.73;;;0.50;;
25359;SDS011;13311;51.386;0.016;2022-07-09T08:53:39;1.38;;;0.80;;
25359;SDS011;13311;51.386;0.016;2022-07-09T08:58:42;0.85;;;0.85;;
25359;SDS011;13311;51.386;0.016;2022-07-09T09:03:43;1.13;;;0.70;;
25359;SDS011;13311;51.386;0.016;2022-07-09T09:08:45;1.45;;;0.77;;
25359;SDS011;13311;51.386;0.016;2022-07-09T09:13:47;2.92;;;0.98;;
25359;SDS011;13311;51.386;0.016;2022-07-09T09:18:50;2.30;;;0.93;;
25359;SDS011;13311;51.386;0.016;2022-07-09T09:23:53;2.53;;;1.65;;
25359;SDS011;13311;51.386;0.016;2022-07-09T09:29:01;2.20;;;0.88;;
25359;SDS011;13311;51.386;0.016;2022-07-09T09:44:17;1.67;;;0.73;;
25359;SDS011;13311;51.386;0.016;2022-07-09T09:49:23;1.10;;;0.70;;
25359;SDS011;13311;51.386;0.016;2022-07-09T09:54:25;1.58;;;0.70;;
25359;SDS011;13311;51.386;0.016;2022-07-09T09:59:26;1.35;;;0.90;;
25359;SDS011;13311;51.386;0.016;2022-07-09T10:04:27;1.50;;;1.00;;
25359;SDS011;13311;51.386;0.016;2022-07-09T10:09:28;1.33;;;0.85;;
25359;SDS011;13311;51.386;0.016;2022-07-09T10:14:33;1.20;;;1.10;;
25359;SDS011;13311;51.386;0.016;2022-07-09T10:19:34;1.70;;;1.10;;
25359;SDS011;13311;51.386;0.016;2022-07-09T10:24:36;3.70;;;1.30;;
25359;SDS011;13311;51.386;0.016;2022-07-09T10:29:52;1.02;;;0.93;;
25359;SDS011;13311;51.386;0.016;2022-07-09T10:35:04;2.30;;;1.08;;
25359;SDS011;13311;51.386;0.016;2022-07-09T10:40:16;1.63;;;1.10;;
25359;SDS011;13311;51.386;0.016;2022-07-09T10:45:22;2.38;;;0.98;;
25359;SDS011;13311;51.386;0.016;2022-07-09T10:50:29;2.28;;;1.08;;
25359;SDS011;13311;51.386;0.016;2022-07-09T10:55:32;1.30;;;1.20;;
25359;SDS011;13311;51.386;0.016;2022-07-09T11:00:33;1.02;;;0.90;;
25359;SDS011;13311;51.386;0.016;2022-07-09T11:05:43;1.38;;;0.80;;
25359;SDS011;13311;51.386;0.016;2022-07-09T11:10:45;3.78;;;1.30;;
25359;SDS011;13311;51.386;0.016;2022-07-09T11:15:46;3.50;;;1.40;;
25359;SDS011;13311;51.386;0.016;2022-07-09T11:20:47;2.75;;;1.48;;
25359;SDS011;13311;51.386;0.016;2022-07-09T11:25:47;1.33;;;1.23;;
25359;SDS011;13311;51.386;0.016;2022-07-09T11:30:58;1.55;;;1.05;;
25359;SDS011;13311;51.386;0.016;2022-07-09T11:36:02;1.98;;;1.00;;
25359;SDS011;13311;51.386;0.016;2022-07-09T11:41:03;1.27;;;0.93;;
25359;SDS011;13311;51.386;0.016;2022-07-09T11:46:04;1.75;;;1.25;;
25359;SDS011;13311;51.386;0.016;2022-07-09T11:51:05;1.70;;;1.60;;
25359;SDS011;13311;51.386;0.016;2022-07-09T11:56:06;2.92;;;1.13;;
25359;SDS011;13311;51.386;0.016;2022-07-09T12:01:10;1.25;;;1.00;;
25359;SDS011;13311;51.386;0.016;2022-07-09T12:06:11;1.27;;;1.10;;
25359;SDS011;13311;51.386;0.016;2022-07-09T12:11:14;1.60;;;1.00;;
25359;SDS011;13311;51.386;0.016;2022-07-09T12:16:15;1.48;;;1.38;;
25359;SDS011;13311;51.386;0.016;2022-07-09T12:21:15;0.77;;;0.77;;
25359;SDS011;13311;51.386;0.016;2022-07-09T12:26:16;1.42;;;1.20;;
25359;SDS011;13311;51.386;0.016;2022-07-09T12:31:17;1.40;;;1.10;;
25359;SDS011;13311;51.386;0.016;2022-07-09T12:36:17;2.67;;;1.42;;
25359;SDS011;13311;51.386;0.016;2022-07-09T12:41:19;2.83;;;1.13;;
25359;SDS011;13311;51.386;0.016;2022-07-09T12:46:19;1.17;;;1.00;;
25359;SDS011;13311;51.386;0.016;2022-07-09T12:51:20;0.65;;;0.65;;
25359;SDS011;13311;51.386;0.016;2022-07-09T12:56:21;4.43;;;1.48;;
25359;SDS011;13311;51.386;0.016;2022-07-09T13:01:22;1.75;;;1.33;;
25359;SDS011;13311;51.386;0.016;2022-07-09T13:06:22;1.50;;;1.17;;
25359;SDS011;13311;51.386;0.016;2022-07-09T13:11:32;1.73;;;1.48;;
25359;SDS011;13311;51.386;0.016;2022-07-09T13:16:34;1.33;;;1.00;;
25359;SDS011;13311;51.386;0.016;2022-07-09T13:21:36;1.95;;;1.67;;
25359;SDS011;13311;51.386;0.016;2022-07-09T13:26:37;2.05;;;1.35;;
25359;SDS011;13311;51.386;0.016;2022-07-09T13:31:38;1.23;;;1.00;;
25359;SDS011;13311;51.386;0.016;2022-07-09T13:36:38;1.15;;;0.98;;
25359;SDS011;13311;51.386;0.016;2022-07-09T13:41:39;0.90;;;0.88;;
25359;SDS011;13311;51.386;0.016;2022-07-09T13:46:40;1.10;;;1.02;;
25359;SDS011;13311;51.386;0.016;2022-07-09T13:51:41;0.93;;;0.80;;
25359;SDS011;13311;51.386;0.016;2022-07-09T13:56:41;0.98;;;0.80;;
25359;SDS011;13311;51.386;0.016;2022-07-09T14:01:42;1.88;;;0.95;;
25359;SDS011;13311;51.386;0.016;2022-07-09T14:06:43;1.88;;;0.65;;
25359;SDS011;13311;51.386;0.016;2022-07-09T14:11:44;1.30;;;1.20;;
25359;SDS011;13311;51.386;0.016;2022-07-09T14:16:45;2.13;;;1.10;;
25359;SDS011;13311;51.386;0.016;2022-07-09T14:21:45;1.05;;;0.90;;
25359;SDS011;13311;51.386;0.016;2022-07-09T14:26:46;2.65;;;0.90;;
25359;SDS011;13311;51.386;0.016;2022-07-09T14:31:48;1.42;;;0.68;;
25359;SDS011;13311;51.386;0.016;2022-07-09T14:36:49;2.38;;;1.15;;
25359;SDS011;13311;51.386;0.016;2022-07-09T14:41:51;3.47;;;1.00;;
25359;SDS011;13311;51.386;0.016;2022-07-09T14:46:52;1.58;;;1.00;;
25359;SDS011;13311;51.386;0.016;2022-07-09T14:51:58;1.52;;;1.23;;
25359;SDS011;13311;51.386;0.016;2022-07-09T14:56:59;2.15;;;0.90;;
25359;SDS011;13311;51.386;0.016;2022-07-09T15:02:00;0.93;;;0.90;;
25359;SDS011;13311;51.386;0.016;2022-07-09T15:07:01;0.95;;;0.70;;
25359;SDS011;13311;51.386;0.016;2022-07-09T15:12:02;1.02;;;0.93;;
25359;SDS011;13311;51.386;0.016;2022-07-09T15:17:03;1.58;;;1.17;;
25359;SDS011;13311;51.386;0.016;2022-07-09T15:22:10;1.45;;;1.20;;
25359;SDS011;13311;51.386;0.016;2022-07-09T15:27:11;4.20;;;1.00;;
25359;SDS011;13311;51.386;0.016;2022-07-09T15:32:12;1.58;;;0.98;;
25359;SDS011;13311;51.386;0.016;2022-07-09T15:37:14;2.80;;;1.15;;
25359;SDS011;13311;51.386;0.016;2022-07-09T15:42:15;0.80;;;0.80;;
25359;SDS011;13311;51.386;0.016;2022-07-09T15:47:16;1.17;;;1.08;;
25359;SDS011;13311;51.386;0.016;2022-07-09T15:52:18;2.10;;;0.88;;
25359;SDS011;13311;51.386;0.016;2022-07-09T15:57:19;1.20;;;1.10;;
25359;SDS011;13311;51.386;0.016;2022-07-09T16:02:20;2.30;;;0.95;;
25359;SDS011;13311;51.386;0.016;2022-07-09T16:07:20;1.02;;;0.93;;
25359;SDS011;13311;51.386;0.016;2022-07-09T16:12:21;1.50;;;0.95;;
25359;SDS011;13311;51.386;0.016;2022-07-09T16:17:41;1.52;;;1.40;;
25359;SDS011;13311;51.386;0.016;2022-07-09T16:22:41;4.15;;;1.60;;
25359;SDS011;13311;51.386;0.016;2022-07-09T16:27:42;3.10;;;2.42;;
25359;SDS011;13311;51.386;0.016;2022-07-09T16:32:46;2.30;;;1.30;;
25359;SDS011;13311;51.386;0.016;2022-07-09T16:37:47;0.95;;;0.70;;
25359;SDS011;13311;51.386;0.016;2022-07-09T16:42:48;1.58;;;1.05;;
25359;SDS011;13311;51.386;0.016;2022-07-09T16:47:48;2.10;;;1.90;;
25359;SDS011;13311;51.386;0.016;2022-07-09T16:52:49;1.38;;;1.00;;
25359;SDS011;13311;51.386;0.016;2022-07-09T16:57:50;0.60;;;0.60;;
25359;SDS011;13311;51.386;0.016;2022-07-09T17:02:51;2.17;;;1.10;;
25359;SDS011;13311;51.386;0.016;2022-07-09T17:07:52;0.90;;;0.80;;
25359;SDS011;13311;51.386;0.016;2022-07-09T17:12:52;1.00;;;0.90;;
25359;SDS011;13311;51.386;0.016;2022-07-09T17:17:53;2.70;;;2.38;;
25359;SDS011;13311;51.386;0.016;2022-07-09T17:22:54;3.25;;;2.45;;
25359;SDS011;13311;51.386;0.016;2022-07-09T17:27:55;2.35;;;1.10;;
25359;SDS011;13311;51.386;0.016;2022-07-09T17:32:55;2.97;;;1.20;;
25359;SDS011;13311;51.386;0.016;2022-07-09T17:37:56;1.75;;;0.68;;
25359;SDS011;13311;51.386;0.016;2022-07-09T17:42:58;2.45;;;1.20;;
25359;SDS011;13311;51.386;0.016;2022-07-09T17:47:59;0.90;;;0.90;;
25359;SDS011;13311;51.386;0.016;2022-07-09T17:53:00;1.95;;;1.60;;
25359;SDS011;13311;51.386;0.016;2022-07-09T17:58:01;3.97;;;2.10;;
25359;SDS011;13311;51.386;0.016;2022-07-09T18:03:08;3.15;;;2.15;;
25359;SDS011;13311;51.386;0.016;2022-07-09T18:08:08;4.53;;;3.10;;
25359;SDS011;13311;51.386;0.016;2022-07-09T18:13:09;7.03;;;2.80;;
25359;SDS011;13311;51.386;0.016;2022-07-09T18:18:10;3.95;;;2.45;;
25359;SDS011;13311;51.386;0.016;2022-07-09T18:23:11;3.00;;;1.70;;
25359;SDS011;13311;51.386;0.016;2022-07-09T18:28:12;2.75;;;2.00;;
25359;SDS011;13311;51.386;0.016;2022-07-09T18:33:15;3.15;;;2.30;;
25359;SDS011;13311;51.386;0.016;2022-07-09T18:38:16;5.72;;;3.40;;
25359;SDS011;13311;51.386;0.016;2022-07-09T18:43:17;3.50;;;2.38;;
25359;SDS011;13311;51.386;0.016;2022-07-09T18:48:18;7.55;;;2.22;;
25359;SDS011;13311;51.386;0.016;2022-07-09T18:53:19;2.63;;;1.70;;
25359;SDS011;13311;51.386;0.016;2022-07-09T18:58:20;1.73;;;1.48;;
25359;SDS011;13311;51.386;0.016;2022-07-09T19:03:21;3.58;;;1.30;;
25359;SDS011;13311;51.386;0.016;2022-07-09T19:08:22;2.45;;;1.50;;
25359;SDS011;13311;51.386;0.016;2022-07-09T19:13:23;3.95;;;1.90;;
25359;SDS011;13311;51.386;0.016;2022-07-09T19:18:24;4.68;;;1.60;;
25359;SDS011;13311;51.386;0.016;2022-07-09T19:23:25;2.60;;;1.33;;
25359;SDS011;13311;51.386;0.016;2022-07-09T19:28:25;1.88;;;1.35;;
25359;SDS011;13311;51.386;0.016;2022-07-09T19:33:26;3.63;;;1.55;;
25359;SDS011;13311;51.386;0.016;2022-07-09T19:38:46;3.55;;;1.90;;
25359;SDS011;13311;51.386;0.016;2022-07-09T19:43:46;5.38;;;1.48;;
25359;SDS011;13311;51.386;0.016;2022-07-09T19:48:48;6.15;;;1.75;;
25359;SDS011;13311;51.386;0.016;2022-07-09T19:53:51;5.25;;;2.00;;
25359;SDS011;13311;51.386;0.016;2022-07-09T19:58:53;7.13;;;1.75;;
25359;SDS011;13311;51.386;0.016;2022-07-09T20:03:54;6.10;;;2.15;;
25359;SDS011;13311;51.386;0.016;2022-07-09T20:08:56;4.28;;;1.75;;
25359;SDS011;13311;51.386;0.016;2022-07-09T20:13:57;7.15;;;2.28;;
25359;SDS011;13311;51.386;0.016;2022-07-09T20:19:00;4.55;;;2.20;;
25359;SDS011;13311;51.386;0.016;2022-07-09T20:24:01;3.60;;;2.40;;
25359;SDS011;13311;51.386;0.016;2022-07-09T20:29:02;4.85;;;2.05;;
25359;SDS011;13311;51.386;0.016;2022-07-09T20:34:02;3.33;;;2.22;;
25359;SDS011;13311;51.386;0.016;2022-07-09T20:39:04;5.07;;;1.80;;
25359;SDS011;13311;51.386;0.016;2022-07-09T20:44:04;5.88;;;2.13;;
25359;SDS011;13311;51.386;0.016;2022-07-09T20:49:05;6.88;;;2.15;;
25359;SDS011;13311;51.386;0.016;2022-07-09T20:54:06;5.75;;;2.13;;
25359;SDS011;13311;51.386;0.016;2022-07-09T20:59:07;2.65;;;2.17;;
25359;SDS011;13311;51.386;0.016;2022-07-09T21:04:07;6.13;;;1.73;;
25359;SDS011;13311;51.386;0.016;2022-07-09T21:09:08;5.70;;;2.05;;
25359;SDS011;13311;51.386;0.016;2022-07-09T21:14:09;5.20;;;2.60;;
25359;SDS011;13311;51.386;0.016;2022-07-09T21:19:10;7.28;;;2.22;;
25359;SDS011;13311;51.386;0.016;2022-07-09T21:24:10;8.77;;;2.55;;
25359;SDS011;13311;51.386;0.016;2022-07-09T21:29:11;9.23;;;3.00;;
25359;SDS011;13311;51.386;0.016;2022-07-09T21:34:12;10.52;;;3.67;;
25359;SDS011;13311;51.386;0.016;2022-07-09T21:39:13;8.70;;;5.07;;
25359;SDS011;13311;51.386;0.016;2022-07-09T21:44:14;7.55;;;3.08;;
25359;SDS011;13311;51.386;0.016;2022-07-09T21:49:14;6.13;;;2.75;;
25359;SDS011;13311;51.386;0.016;2022-07-09T21:54:16;3.70;;;2.50;;
25359;SDS011;13311;51.386;0.016;2022-07-09T21:59:17;6.60;;;2.90;;
25359;SDS011;13311;51.386;0.016;2022-07-09T22:04:18;3.72;;;2.08;;
25359;SDS011;13311;51.386;0.016;2022-07-09T22:09:19;3.72;;;2.45;;
25359;SDS011;13311;51.386;0.016;2022-07-09T22:14:20;2.83;;;2.38;;
25359;SDS011;13311;51.386;0.016;2022-07-09T22:19:20;4.78;;;3.03;;
25359;SDS011;13311;51.386;0.016;2022-07-09T22:24:21;5.60;;;2.17;;
25359;SDS011;13311;51.386;0.016;2022-07-09T22:29:22;3.35;;;2.53;;
25359;SDS011;13311;51.386;0.016;2022-07-09T22:34:23;5.18;;;2.22;;
25359;SDS011;13311;51.386;0.016;2022-07-09T22:39:24;3.47;;;2.53;;
25359;SDS011;13311;51.386;0.016;2022-07-09T22:44:27;2.83;;;2.53;;
25359;SDS011;13311;51.386;0.016;2022-07-09T22:49:28;3.03;;;2.50;;
25359;SDS011;13311;51.386;0.016;2022-07-09T22:54:28;2.92;;;2.45;;
25359;SDS011;13311;51.386;0.016;2022-07-09T22:59:40;5.40;;;2.80;;
25359;SDS011;13311;51.386;0.016;2022-07-09T23:04:41;6.40;;;2.40;;
25359;SDS011;13311;51.386;0.016;2022-07-09T23:09:42;2.60;;;2.25;;
25359;SDS011;13311;51.386;0.016;2022-07-09T23:14:43;2.50;;;2.30;;
25359;SDS011;13311;51.386;0.016;2022-07-09T23:19:43;8.20;;;3.40;;
25359;SDS011;13311;51.386;0.016;2022-07-09T23:24:46;3.28;;;2.40;;
25359;SDS011;13311;51.386;0.016;2022-07-09T23:29:47;4.97;;;2.45;;
25359;SDS011;13311;51.386;0.016;2022-07-09T23:34:47;2.63;;;2.17;;
25359;SDS011;13311;51.386;0.016;2022-07-09T23:39:48;2.78;;;2.47;;
25359;SDS011;13311;51.386;0.016;2022-07-09T23:44:49;4.75;;;2.10;;
25359;SDS011;13311;51.386;0.016;2022-07-09T23:49:50;5.80;;;2.30;;
25359;SDS011;13311;51.386;0.016;2022-07-09T23:54:51;5.68;;;2.40;;
25359;SDS011;13311;51.386;0.016;2022-07-09T23:59:51;4.10;;;2.60;;
